sensor_id;sensor_type;location;lat;lon;timestamp;temperature;humidity
51476;DHT22;37554;50.362;7.568;2024-03-06T00:00:47;15.30;58.60
51476;DHT22;37554;50.362;7.568;2024-03-06T00:03:13;15.30;58.60
51476;DHT22;37554;50.362;7.568;2024-03-06T00:05:38;15.20;58.50
51476;DHT22;37554;50.362;7.568;2024-03-06T00:08:04;15.20;58.40
51476;DHT22;37554;50.362;7.568;2024-03-06T00:10:30;15.20;58.40
51476;DHT22;37554;50.362;7.568;2024-03-06T00:12:55;15.20;58.40
51476;DHT22;37554;50.362;7.568;2024-03-06T00:15:21;15.20;58.30
51476;DHT22;37554;50.362;7.568;2024-03-06T00:17:47;15.20;58.30
51476;DHT22;37554;50.362;7.568;2024-03-06T00:20:12;15.20;58.30
51476;DHT22;37554;50.362;7.568;2024-03-06T00:22:39;15.10;58.20
51476;DHT22;37554;50.362;7.568;2024-03-06T00:25:05;15.10;58.20
51476;DHT22;37554;50.362;7.568;2024-03-06T00:27:31;15.10;58.10
51476;DHT22;37554;50.362;7.568;2024-03-06T00:29:57;15.10;58.10
51476;DHT22;37554;50.362;7.568;2024-03-06T00:32:23;15.10;58.10
51476;DHT22;37554;50.362;7.568;2024-03-06T00:34:49;15.00;58.10
51476;DHT22;37554;50.362;7.568;2024-03-06T00:37:14;15.00;58.00
51476;DHT22;37554;50.362;7.568;2024-03-06T00:39:40;15.00;58.00
51476;DHT22;37554;50.362;7.568;2024-03-06T00:42:05;15.00;58.00
51476;DHT22;37554;50.362;7.568;2024-03-06T00:44:34;15.00;57.90
51476;DHT22;37554;50.362;7.568;2024-03-06T00:46:59;15.00;57.90
51476;DHT22;37554;50.362;7.568;2024-03-06T00:49:25;15.00;57.90
51476;DHT22;37554;50.362;7.568;2024-03-06T00:51:51;14.90;57.90
51476;DHT22;37554;50.362;7.568;2024-03-06T00:54:17;14.90;57.90
51476;DHT22;37554;50.362;7.568;2024-03-06T00:56:42;14.90;57.90
51476;DHT22;37554;50.362;7.568;2024-03-06T00:59:08;14.90;57.70
51476;DHT22;37554;50.362;7.568;2024-03-06T01:01:34;14.80;57.60
51476;DHT22;37554;50.362;7.568;2024-03-06T01:03:59;14.80;57.70
51476;DHT22;37554;50.362;7.568;2024-03-06T01:06:25;14.80;57.70
51476;DHT22;37554;50.362;7.568;2024-03-06T01:08:51;14.80;57.70
51476;DHT22;37554;50.362;7.568;2024-03-06T01:11:16;14.80;57.70
51476;DHT22;37554;50.362;7.568;2024-03-06T01:13:42;14.70;57.60
51476;DHT22;37554;50.362;7.568;2024-03-06T01:16:07;14.70;57.60
51476;DHT22;37554;50.362;7.568;2024-03-06T01:18:33;14.70;57.60
51476;DHT22;37554;50.362;7.568;2024-03-06T01:20:59;14.70;57.60
51476;DHT22;37554;50.362;7.568;2024-03-06T01:23:25;14.70;57.50
51476;DHT22;37554;50.362;7.568;2024-03-06T01:25:50;14.70;57.50
51476;DHT22;37554;50.362;7.568;2024-03-06T01:28:16;14.70;57.50
51476;DHT22;37554;50.362;7.568;2024-03-06T01:30:41;14.70;57.60
51476;DHT22;37554;50.362;7.568;2024-03-06T01:33:07;14.60;57.40
51476;DHT22;37554;50.362;7.568;2024-03-06T01:35:33;14.60;57.40
51476;DHT22;37554;50.362;7.568;2024-03-06T01:37:58;14.60;57.40
51476;DHT22;37554;50.362;7.568;2024-03-06T01:40:24;14.60;57.40
51476;DHT22;37554;50.362;7.568;2024-03-06T01:42:50;14.60;57.40
51476;DHT22;37554;50.362;7.568;2024-03-06T01:45:16;14.60;57.40
51476;DHT22;37554;50.362;7.568;2024-03-06T01:47:42;14.60;57.30
51476;DHT22;37554;50.362;7.568;2024-03-06T01:50:08;14.50;57.20
51476;DHT22;37554;50.362;7.568;2024-03-06T01:52:36;14.50;57.30
51476;DHT22;37554;50.362;7.568;2024-03-06T01:55:03;14.50;57.20
51476;DHT22;37554;50.362;7.568;2024-03-06T01:57:31;14.50;57.20
51476;DHT22;37554;50.362;7.568;2024-03-06T01:59:57;14.50;57.20
51476;DHT22;37554;50.362;7.568;2024-03-06T02:02:23;14.50;57.20
51476;DHT22;37554;50.362;7.568;2024-03-06T02:04:49;14.40;57.10
51476;DHT22;37554;50.362;7.568;2024-03-06T02:07:16;14.40;57.10
51476;DHT22;37554;50.362;7.568;2024-03-06T02:09:43;14.40;57.00
51476;DHT22;37554;50.362;7.568;2024-03-06T02:12:08;14.40;57.00
51476;DHT22;37554;50.362;7.568;2024-03-06T02:14:35;14.40;57.00
51476;DHT22;37554;50.362;7.568;2024-03-06T02:17:01;14.40;57.00
51476;DHT22;37554;50.362;7.568;2024-03-06T02:19:43;14.40;57.00
51476;DHT22;37554;50.362;7.568;2024-03-06T02:22:09;14.30;56.80
51476;DHT22;37554;50.362;7.568;2024-03-06T02:24:36;14.30;56.90
51476;DHT22;37554;50.362;7.568;2024-03-06T02:27:05;14.30;56.90
51476;DHT22;37554;50.362;7.568;2024-03-06T02:29:33;14.20;56.90
51476;DHT22;37554;50.362;7.568;2024-03-06T02:31:59;14.20;56.90
51476;DHT22;37554;50.362;7.568;2024-03-06T02:34:25;14.20;56.90
51476;DHT22;37554;50.362;7.568;2024-03-06T02:36:51;14.20;56.90
51476;DHT22;37554;50.362;7.568;2024-03-06T02:39:17;14.20;56.90
51476;DHT22;37554;50.362;7.568;2024-03-06T02:41:43;14.20;56.90
51476;DHT22;37554;50.362;7.568;2024-03-06T02:44:08;14.10;56.80
51476;DHT22;37554;50.362;7.568;2024-03-06T02:46:34;14.10;56.80
51476;DHT22;37554;50.362;7.568;2024-03-06T02:48:59;14.10;56.70
51476;DHT22;37554;50.362;7.568;2024-03-06T02:51:25;14.10;56.70
51476;DHT22;37554;50.362;7.568;2024-03-06T02:53:51;14.10;56.70
51476;DHT22;37554;50.362;7.568;2024-03-06T02:56:18;14.10;56.70
51476;DHT22;37554;50.362;7.568;2024-03-06T02:58:45;14.00;56.70
51476;DHT22;37554;50.362;7.568;2024-03-06T03:01:11;14.00;56.60
51476;DHT22;37554;50.362;7.568;2024-03-06T03:03:40;14.00;56.60
51476;DHT22;37554;50.362;7.568;2024-03-06T03:06:06;14.00;56.60
51476;DHT22;37554;50.362;7.568;2024-03-06T03:08:32;14.00;56.50
51476;DHT22;37554;50.362;7.568;2024-03-06T03:10:57;14.00;56.50
51476;DHT22;37554;50.362;7.568;2024-03-06T03:13:23;14.00;56.50
51476;DHT22;37554;50.362;7.568;2024-03-06T03:15:49;13.90;56.50
51476;DHT22;37554;50.362;7.568;2024-03-06T03:18:15;13.90;56.50
51476;DHT22;37554;50.362;7.568;2024-03-06T03:20:40;13.90;56.50
51476;DHT22;37554;50.362;7.568;2024-03-06T03:23:06;13.90;56.50
51476;DHT22;37554;50.362;7.568;2024-03-06T03:25:37;13.90;56.50
51476;DHT22;37554;50.362;7.568;2024-03-06T03:28:03;13.90;56.50
51476;DHT22;37554;50.362;7.568;2024-03-06T03:30:29;13.80;56.40
51476;DHT22;37554;50.362;7.568;2024-03-06T03:32:54;13.80;56.40
51476;DHT22;37554;50.362;7.568;2024-03-06T03:35:20;13.80;56.40
51476;DHT22;37554;50.362;7.568;2024-03-06T03:37:53;13.80;56.30
51476;DHT22;37554;50.362;7.568;2024-03-06T03:40:21;13.80;56.40
51476;DHT22;37554;50.362;7.568;2024-03-06T03:42:47;13.80;56.30
51476;DHT22;37554;50.362;7.568;2024-03-06T03:45:13;13.80;56.30
51476;DHT22;37554;50.362;7.568;2024-03-06T03:47:40;13.80;56.30
51476;DHT22;37554;50.362;7.568;2024-03-06T03:50:05;13.70;56.30
51476;DHT22;37554;50.362;7.568;2024-03-06T03:52:31;13.70;56.30
51476;DHT22;37554;50.362;7.568;2024-03-06T03:54:57;13.70;56.20
51476;DHT22;37554;50.362;7.568;2024-03-06T03:57:22;13.70;56.20
51476;DHT22;37554;50.362;7.568;2024-03-06T03:59:48;13.70;56.20
51476;DHT22;37554;50.362;7.568;2024-03-06T04:02:14;13.60;56.20
51476;DHT22;37554;50.362;7.568;2024-03-06T04:04:39;13.60;56.20
51476;DHT22;37554;50.362;7.568;2024-03-06T04:07:05;13.60;56.30
51476;DHT22;37554;50.362;7.568;2024-03-06T04:09:32;13.60;56.20
51476;DHT22;37554;50.362;7.568;2024-03-06T04:12:02;13.60;56.20
51476;DHT22;37554;50.362;7.568;2024-03-06T04:14:27;13.60;56.20
51476;DHT22;37554;50.362;7.568;2024-03-06T04:16:53;13.60;56.10
51476;DHT22;37554;50.362;7.568;2024-03-06T04:19:18;13.50;56.10
51476;DHT22;37554;50.362;7.568;2024-03-06T04:21:44;13.60;56.10
51476;DHT22;37554;50.362;7.568;2024-03-06T04:24:10;13.50;56.10
51476;DHT22;37554;50.362;7.568;2024-03-06T04:26:35;13.50;56.10
51476;DHT22;37554;50.362;7.568;2024-03-06T04:29:01;13.50;56.10
51476;DHT22;37554;50.362;7.568;2024-03-06T04:31:28;13.50;56.10
51476;DHT22;37554;50.362;7.568;2024-03-06T04:33:54;13.50;56.10
51476;DHT22;37554;50.362;7.568;2024-03-06T04:36:19;13.50;56.10
51476;DHT22;37554;50.362;7.568;2024-03-06T04:38:45;13.50;56.10
51476;DHT22;37554;50.362;7.568;2024-03-06T04:41:10;13.50;56.10
51476;DHT22;37554;50.362;7.568;2024-03-06T04:43:36;13.50;56.10
51476;DHT22;37554;50.362;7.568;2024-03-06T04:46:02;13.50;56.10
51476;DHT22;37554;50.362;7.568;2024-03-06T04:48:28;13.40;56.10
51476;DHT22;37554;50.362;7.568;2024-03-06T04:50:53;13.40;56.10
51476;DHT22;37554;50.362;7.568;2024-03-06T04:53:19;13.40;56.10
51476;DHT22;37554;50.362;7.568;2024-03-06T04:55:47;13.40;56.10
51476;DHT22;37554;50.362;7.568;2024-03-06T04:58:13;13.40;56.00
51476;DHT22;37554;50.362;7.568;2024-03-06T05:00:39;13.40;56.10
51476;DHT22;37554;50.362;7.568;2024-03-06T05:03:04;13.40;56.10
51476;DHT22;37554;50.362;7.568;2024-03-06T05:05:30;13.40;56.10
51476;DHT22;37554;50.362;7.568;2024-03-06T05:07:56;13.40;56.10
51476;DHT22;37554;50.362;7.568;2024-03-06T05:10:22;13.40;56.10
51476;DHT22;37554;50.362;7.568;2024-03-06T05:12:47;13.40;56.10
51476;DHT22;37554;50.362;7.568;2024-03-06T05:15:13;13.40;56.20
51476;DHT22;37554;50.362;7.568;2024-03-06T05:17:39;13.40;56.10
51476;DHT22;37554;50.362;7.568;2024-03-06T05:20:05;13.40;56.20
51476;DHT22;37554;50.362;7.568;2024-03-06T05:22:31;13.40;56.20
51476;DHT22;37554;50.362;7.568;2024-03-06T05:24:57;13.30;56.20
51476;DHT22;37554;50.362;7.568;2024-03-06T05:27:24;13.30;56.20
51476;DHT22;37554;50.362;7.568;2024-03-06T05:29:49;13.30;56.20
51476;DHT22;37554;50.362;7.568;2024-03-06T05:32:15;13.30;56.20
51476;DHT22;37554;50.362;7.568;2024-03-06T05:34:40;13.30;56.20
51476;DHT22;37554;50.362;7.568;2024-03-06T05:37:07;13.30;56.20
51476;DHT22;37554;50.362;7.568;2024-03-06T05:39:32;13.30;56.20
51476;DHT22;37554;50.362;7.568;2024-03-06T05:42:03;13.30;56.20
51476;DHT22;37554;50.362;7.568;2024-03-06T05:44:33;13.20;56.30
51476;DHT22;37554;50.362;7.568;2024-03-06T05:46:59;13.20;56.30
51476;DHT22;37554;50.362;7.568;2024-03-06T05:49:26;13.20;56.30
51476;DHT22;37554;50.362;7.568;2024-03-06T05:51:52;13.20;56.30
51476;DHT22;37554;50.362;7.568;2024-03-06T05:54:21;13.20;56.30
51476;DHT22;37554;50.362;7.568;2024-03-06T05:56:51;13.20;56.20
51476;DHT22;37554;50.362;7.568;2024-03-06T05:59:17;13.20;56.20
51476;DHT22;37554;50.362;7.568;2024-03-06T06:01:43;13.20;56.20
51476;DHT22;37554;50.362;7.568;2024-03-06T06:04:10;13.20;56.20
51476;DHT22;37554;50.362;7.568;2024-03-06T06:06:36;13.30;56.20
51476;DHT22;37554;50.362;7.568;2024-03-06T06:09:02;13.20;56.10
51476;DHT22;37554;50.362;7.568;2024-03-06T06:11:31;13.30;56.20
51476;DHT22;37554;50.362;7.568;2024-03-06T06:13:57;13.30;56.20
51476;DHT22;37554;50.362;7.568;2024-03-06T06:16:22;13.20;56.10
51476;DHT22;37554;50.362;7.568;2024-03-06T06:18:48;13.20;56.10
51476;DHT22;37554;50.362;7.568;2024-03-06T06:21:14;13.20;56.10
51476;DHT22;37554;50.362;7.568;2024-03-06T06:23:39;13.30;56.10
51476;DHT22;37554;50.362;7.568;2024-03-06T06:26:05;13.30;56.20
51476;DHT22;37554;50.362;7.568;2024-03-06T06:28:31;13.30;56.20
51476;DHT22;37554;50.362;7.568;2024-03-06T06:30:56;13.30;56.10
51476;DHT22;37554;50.362;7.568;2024-03-06T06:33:22;13.30;56.10
51476;DHT22;37554;50.362;7.568;2024-03-06T06:35:47;13.30;56.10
51476;DHT22;37554;50.362;7.568;2024-03-06T06:38:13;13.30;56.10
51476;DHT22;37554;50.362;7.568;2024-03-06T06:40:39;13.00;55.80
51476;DHT22;37554;50.362;7.568;2024-03-06T06:43:06;12.40;56.50
51476;DHT22;37554;50.362;7.568;2024-03-06T06:45:32;12.10;57.30
51476;DHT22;37554;50.362;7.568;2024-03-06T06:47:57;11.80;58.00
51476;DHT22;37554;50.362;7.568;2024-03-06T06:50:23;11.80;58.80
51476;DHT22;37554;50.362;7.568;2024-03-06T06:52:51;12.20;58.80
51476;DHT22;37554;50.362;7.568;2024-03-06T06:55:17;12.60;58.20
51476;DHT22;37554;50.362;7.568;2024-03-06T06:57:43;12.80;57.50
51476;DHT22;37554;50.362;7.568;2024-03-06T07:00:10;13.00;57.00
51476;DHT22;37554;50.362;7.568;2024-03-06T07:02:39;13.20;56.70
51476;DHT22;37554;50.362;7.568;2024-03-06T07:05:06;13.30;56.60
51476;DHT22;37554;50.362;7.568;2024-03-06T07:07:34;13.40;56.40
51476;DHT22;37554;50.362;7.568;2024-03-06T07:09:59;13.50;56.30
51476;DHT22;37554;50.362;7.568;2024-03-06T07:12:25;13.60;56.30
51476;DHT22;37554;50.362;7.568;2024-03-06T07:14:51;13.60;56.30
51476;DHT22;37554;50.362;7.568;2024-03-06T07:17:16;13.70;56.20
51476;DHT22;37554;50.362;7.568;2024-03-06T07:19:42;13.70;56.10
51476;DHT22;37554;50.362;7.568;2024-03-06T07:22:07;13.80;56.00
51476;DHT22;37554;50.362;7.568;2024-03-06T07:24:35;13.80;55.90
51476;DHT22;37554;50.362;7.568;2024-03-06T07:27:02;13.80;55.80
51476;DHT22;37554;50.362;7.568;2024-03-06T07:29:28;13.80;55.80
51476;DHT22;37554;50.362;7.568;2024-03-06T07:31:53;13.90;55.80
51476;DHT22;37554;50.362;7.568;2024-03-06T07:34:20;13.80;55.80
51476;DHT22;37554;50.362;7.568;2024-03-06T07:36:48;13.80;55.80
51476;DHT22;37554;50.362;7.568;2024-03-06T07:39:18;13.90;55.90
51476;DHT22;37554;50.362;7.568;2024-03-06T07:41:44;13.90;56.00
51476;DHT22;37554;50.362;7.568;2024-03-06T07:44:10;13.90;56.00
51476;DHT22;37554;50.362;7.568;2024-03-06T07:46:35;13.90;56.00
51476;DHT22;37554;50.362;7.568;2024-03-06T07:49:02;13.90;56.00
51476;DHT22;37554;50.362;7.568;2024-03-06T07:51:29;13.90;56.10
51476;DHT22;37554;50.362;7.568;2024-03-06T07:53:55;13.90;56.00
51476;DHT22;37554;50.362;7.568;2024-03-06T07:56:26;13.90;55.90
51476;DHT22;37554;50.362;7.568;2024-03-06T07:58:52;14.00;55.90
51476;DHT22;37554;50.362;7.568;2024-03-06T08:01:19;14.00;55.80
51476;DHT22;37554;50.362;7.568;2024-03-06T08:03:46;14.00;55.70
51476;DHT22;37554;50.362;7.568;2024-03-06T08:06:12;14.00;55.70
51476;DHT22;37554;50.362;7.568;2024-03-06T08:08:44;14.00;55.70
51476;DHT22;37554;50.362;7.568;2024-03-06T08:11:11;14.00;55.70
51476;DHT22;37554;50.362;7.568;2024-03-06T08:13:37;14.10;55.70
51476;DHT22;37554;50.362;7.568;2024-03-06T08:16:07;14.10;55.70
51476;DHT22;37554;50.362;7.568;2024-03-06T08:18:34;14.10;55.70
51476;DHT22;37554;50.362;7.568;2024-03-06T08:21:00;14.10;55.70
51476;DHT22;37554;50.362;7.568;2024-03-06T08:23:26;14.10;55.70
51476;DHT22;37554;50.362;7.568;2024-03-06T08:25:51;14.10;55.80
51476;DHT22;37554;50.362;7.568;2024-03-06T08:28:18;14.10;55.90
51476;DHT22;37554;50.362;7.568;2024-03-06T08:30:43;14.20;56.30
51476;DHT22;37554;50.362;7.568;2024-03-06T08:33:12;14.30;56.30
51476;DHT22;37554;50.362;7.568;2024-03-06T08:35:38;14.20;56.30
51476;DHT22;37554;50.362;7.568;2024-03-06T08:38:04;14.20;56.40
51476;DHT22;37554;50.362;7.568;2024-03-06T08:40:31;14.20;56.40
51476;DHT22;37554;50.362;7.568;2024-03-06T08:42:57;14.20;56.30
51476;DHT22;37554;50.362;7.568;2024-03-06T08:45:23;14.20;56.30
51476;DHT22;37554;50.362;7.568;2024-03-06T08:47:51;14.30;56.30
51476;DHT22;37554;50.362;7.568;2024-03-06T08:50:20;14.40;56.30
51476;DHT22;37554;50.362;7.568;2024-03-06T08:52:46;14.40;56.40
51476;DHT22;37554;50.362;7.568;2024-03-06T08:55:11;14.50;56.40
51476;DHT22;37554;50.362;7.568;2024-03-06T08:57:38;14.50;56.40
51476;DHT22;37554;50.362;7.568;2024-03-06T09:00:05;14.50;56.30
51476;DHT22;37554;50.362;7.568;2024-03-06T09:02:36;14.50;56.20
51476;DHT22;37554;50.362;7.568;2024-03-06T09:05:05;14.60;56.10
51476;DHT22;37554;50.362;7.568;2024-03-06T09:07:31;14.60;56.10
51476;DHT22;37554;50.362;7.568;2024-03-06T09:09:56;14.60;56.00
51476;DHT22;37554;50.362;7.568;2024-03-06T09:12:22;14.70;55.80
51476;DHT22;37554;50.362;7.568;2024-03-06T09:14:48;14.80;55.70
51476;DHT22;37554;50.362;7.568;2024-03-06T09:17:14;14.80;55.60
51476;DHT22;37554;50.362;7.568;2024-03-06T09:19:40;14.90;55.40
51476;DHT22;37554;50.362;7.568;2024-03-06T09:22:07;15.00;55.30
51476;DHT22;37554;50.362;7.568;2024-03-06T09:24:33;15.00;55.30
51476;DHT22;37554;50.362;7.568;2024-03-06T09:26:58;15.10;55.20
51476;DHT22;37554;50.362;7.568;2024-03-06T09:29:24;15.20;55.10
51476;DHT22;37554;50.362;7.568;2024-03-06T09:31:50;15.20;54.90
51476;DHT22;37554;50.362;7.568;2024-03-06T09:34:16;15.30;54.70
51476;DHT22;37554;50.362;7.568;2024-03-06T09:36:45;15.40;54.50
51476;DHT22;37554;50.362;7.568;2024-03-06T09:39:15;15.50;54.40
51476;DHT22;37554;50.362;7.568;2024-03-06T09:41:50;15.60;54.40
51476;DHT22;37554;50.362;7.568;2024-03-06T09:44:17;15.70;54.20
51476;DHT22;37554;50.362;7.568;2024-03-06T09:46:44;15.70;54.10
51476;DHT22;37554;50.362;7.568;2024-03-06T09:49:14;15.80;54.00
51476;DHT22;37554;50.362;7.568;2024-03-06T09:51:47;15.90;53.80
51476;DHT22;37554;50.362;7.568;2024-03-06T09:54:16;16.00;53.70
51476;DHT22;37554;50.362;7.568;2024-03-06T09:56:48;16.10;53.50
51476;DHT22;37554;50.362;7.568;2024-03-06T09:59:14;16.20;53.40
51476;DHT22;37554;50.362;7.568;2024-03-06T10:01:55;16.20;53.10
51476;DHT22;37554;50.362;7.568;2024-03-06T10:04:27;16.30;53.00
51476;DHT22;37554;50.362;7.568;2024-03-06T10:06:58;16.40;52.90
51476;DHT22;37554;50.362;7.568;2024-03-06T10:09:24;16.50;52.90
51476;DHT22;37554;50.362;7.568;2024-03-06T10:11:50;16.60;52.80
51476;DHT22;37554;50.362;7.568;2024-03-06T10:14:18;16.70;52.70
51476;DHT22;37554;50.362;7.568;2024-03-06T10:16:58;16.80;52.50
51476;DHT22;37554;50.362;7.568;2024-03-06T10:19:26;17.00;52.30
51476;DHT22;37554;50.362;7.568;2024-03-06T10:21:58;17.10;52.10
51476;DHT22;37554;50.362;7.568;2024-03-06T10:24:25;17.20;52.00
51476;DHT22;37554;50.362;7.568;2024-03-06T10:26:52;17.30;51.90
51476;DHT22;37554;50.362;7.568;2024-03-06T10:29:21;17.40;51.70
51476;DHT22;37554;50.362;7.568;2024-03-06T10:31:48;17.50;51.60
51476;DHT22;37554;50.362;7.568;2024-03-06T10:34:14;17.60;51.50
51476;DHT22;37554;50.362;7.568;2024-03-06T10:36:40;17.60;51.50
51476;DHT22;37554;50.362;7.568;2024-03-06T10:39:07;17.60;51.60
51476;DHT22;37554;50.362;7.568;2024-03-06T10:41:36;17.70;51.40
51476;DHT22;37554;50.362;7.568;2024-03-06T10:44:08;17.90;51.10
51476;DHT22;37554;50.362;7.568;2024-03-06T10:46:39;17.90;51.10
51476;DHT22;37554;50.362;7.568;2024-03-06T10:49:05;17.90;51.00
51476;DHT22;37554;50.362;7.568;2024-03-06T10:51:33;18.10;51.00
51476;DHT22;37554;50.362;7.568;2024-03-06T10:54:00;18.20;50.80
51476;DHT22;37554;50.362;7.568;2024-03-06T10:56:26;18.40;50.50
51476;DHT22;37554;50.362;7.568;2024-03-06T10:58:53;18.40;50.40
51476;DHT22;37554;50.362;7.568;2024-03-06T11:01:21;18.40;50.50
51476;DHT22;37554;50.362;7.568;2024-03-06T11:03:48;18.60;50.50
51476;DHT22;37554;50.362;7.568;2024-03-06T11:06:14;18.80;50.20
51476;DHT22;37554;50.362;7.568;2024-03-06T11:08:40;19.20;49.70
51476;DHT22;37554;50.362;7.568;2024-03-06T11:11:22;19.80;49.10
51476;DHT22;37554;50.362;7.568;2024-03-06T11:13:49;20.20;48.20
51476;DHT22;37554;50.362;7.568;2024-03-06T11:16:14;20.60;47.90
51476;DHT22;37554;50.362;7.568;2024-03-06T11:18:40;21.20;47.30
51476;DHT22;37554;50.362;7.568;2024-03-06T11:27:10;22.80;45.30
51476;DHT22;37554;50.362;7.568;2024-03-06T11:30:03;23.40;44.60
51476;DHT22;37554;50.362;7.568;2024-03-06T11:32:30;24.00;43.70
51476;DHT22;37554;50.362;7.568;2024-03-06T11:34:56;24.40;43.40
51476;DHT22;37554;50.362;7.568;2024-03-06T11:37:21;24.30;43.10
51476;DHT22;37554;50.362;7.568;2024-03-06T11:39:48;24.10;42.90
51476;DHT22;37554;50.362;7.568;2024-03-06T11:42:14;24.10;42.70
51476;DHT22;37554;50.362;7.568;2024-03-06T11:44:55;24.30;42.50
51476;DHT22;37554;50.362;7.568;2024-03-06T11:47:21;24.50;41.70
51476;DHT22;37554;50.362;7.568;2024-03-06T11:49:46;24.70;41.90
51476;DHT22;37554;50.362;7.568;2024-03-06T11:52:12;25.00;41.40
51476;DHT22;37554;50.362;7.568;2024-03-06T11:54:38;25.30;40.70
51476;DHT22;37554;50.362;7.568;2024-03-06T11:57:04;25.60;40.30
51476;DHT22;37554;50.362;7.568;2024-03-06T11:59:35;25.90;39.90
51476;DHT22;37554;50.362;7.568;2024-03-06T12:02:03;26.20;39.10
51476;DHT22;37554;50.362;7.568;2024-03-06T12:04:30;26.60;38.80
51476;DHT22;37554;50.362;7.568;2024-03-06T12:06:57;26.80;38.20
51476;DHT22;37554;50.362;7.568;2024-03-06T12:09:25;26.90;37.90
51476;DHT22;37554;50.362;7.568;2024-03-06T12:11:50;26.90;37.60
51476;DHT22;37554;50.362;7.568;2024-03-06T12:14:19;26.90;37.40
51476;DHT22;37554;50.362;7.568;2024-03-06T12:17:01;26.90;37.30
51476;DHT22;37554;50.362;7.568;2024-03-06T12:19:33;26.80;36.40
51476;DHT22;37554;50.362;7.568;2024-03-06T12:22:00;26.70;37.50
51476;DHT22;37554;50.362;7.568;2024-03-06T12:24:25;26.60;37.60
51476;DHT22;37554;50.362;7.568;2024-03-06T12:27:00;26.50;37.80
51476;DHT22;37554;50.362;7.568;2024-03-06T12:29:28;26.40;37.50
51476;DHT22;37554;50.362;7.568;2024-03-06T12:31:55;26.40;37.90
51476;DHT22;37554;50.362;7.568;2024-03-06T12:34:22;26.20;38.00
51476;DHT22;37554;50.362;7.568;2024-03-06T12:36:48;26.10;38.10
51476;DHT22;37554;50.362;7.568;2024-03-06T12:39:15;25.90;38.70
51476;DHT22;37554;50.362;7.568;2024-03-06T12:41:43;25.90;38.10
51476;DHT22;37554;50.362;7.568;2024-03-06T12:44:09;25.80;37.90
51476;DHT22;37554;50.362;7.568;2024-03-06T12:46:35;25.70;37.80
51476;DHT22;37554;50.362;7.568;2024-03-06T12:49:01;25.60;37.80
51476;DHT22;37554;50.362;7.568;2024-03-06T12:51:26;25.50;37.90
51476;DHT22;37554;50.362;7.568;2024-03-06T12:53:52;25.50;38.00
51476;DHT22;37554;50.362;7.568;2024-03-06T12:56:18;25.50;37.90
51476;DHT22;37554;50.362;7.568;2024-03-06T12:58:45;25.50;37.80
51476;DHT22;37554;50.362;7.568;2024-03-06T13:01:10;25.50;37.50
51476;DHT22;37554;50.362;7.568;2024-03-06T13:03:37;25.70;38.00
51476;DHT22;37554;50.362;7.568;2024-03-06T13:06:03;25.90;37.70
51476;DHT22;37554;50.362;7.568;2024-03-06T13:08:32;26.10;36.90
51476;DHT22;37554;50.362;7.568;2024-03-06T13:10:57;26.10;36.50
51476;DHT22;37554;50.362;7.568;2024-03-06T13:13:24;26.20;36.30
51476;DHT22;37554;50.362;7.568;2024-03-06T13:15:53;26.20;36.00
51476;DHT22;37554;50.362;7.568;2024-03-06T13:18:18;26.30;35.90
51476;DHT22;37554;50.362;7.568;2024-03-06T13:20:44;26.30;35.60
51476;DHT22;37554;50.362;7.568;2024-03-06T13:23:11;26.40;35.50
51476;DHT22;37554;50.362;7.568;2024-03-06T13:25:36;26.40;35.30
51476;DHT22;37554;50.362;7.568;2024-03-06T13:28:03;26.50;35.30
51476;DHT22;37554;50.362;7.568;2024-03-06T13:30:29;26.50;35.30
51476;DHT22;37554;50.362;7.568;2024-03-06T13:32:54;26.50;35.20
51476;DHT22;37554;50.362;7.568;2024-03-06T13:35:20;26.50;35.10
51476;DHT22;37554;50.362;7.568;2024-03-06T13:37:47;26.50;35.00
51476;DHT22;37554;50.362;7.568;2024-03-06T13:40:14;26.50;34.80
51476;DHT22;37554;50.362;7.568;2024-03-06T13:42:40;26.60;35.00
51476;DHT22;37554;50.362;7.568;2024-03-06T13:45:07;26.60;34.90
51476;DHT22;37554;50.362;7.568;2024-03-06T13:47:40;26.40;35.20
51476;DHT22;37554;50.362;7.568;2024-03-06T13:50:11;26.00;35.30
51476;DHT22;37554;50.362;7.568;2024-03-06T13:52:37;25.70;35.40
51476;DHT22;37554;50.362;7.568;2024-03-06T13:55:03;25.70;35.60
51476;DHT22;37554;50.362;7.568;2024-03-06T13:57:36;25.70;35.60
51476;DHT22;37554;50.362;7.568;2024-03-06T14:00:04;25.50;35.60
51476;DHT22;37554;50.362;7.568;2024-03-06T14:02:37;25.30;35.90
51476;DHT22;37554;50.362;7.568;2024-03-06T14:05:03;25.20;36.10
51476;DHT22;37554;50.362;7.568;2024-03-06T14:07:29;25.10;36.10
51476;DHT22;37554;50.362;7.568;2024-03-06T14:09:55;25.00;36.40
51476;DHT22;37554;50.362;7.568;2024-03-06T14:12:22;25.00;36.50
51476;DHT22;37554;50.362;7.568;2024-03-06T14:14:48;24.90;36.60
51476;DHT22;37554;50.362;7.568;2024-03-06T14:17:13;24.70;36.50
51476;DHT22;37554;50.362;7.568;2024-03-06T14:19:39;24.60;36.50
51476;DHT22;37554;50.362;7.568;2024-03-06T14:22:06;24.50;36.70
51476;DHT22;37554;50.362;7.568;2024-03-06T14:24:32;24.30;36.80
51476;DHT22;37554;50.362;7.568;2024-03-06T14:26:58;24.20;36.80
51476;DHT22;37554;50.362;7.568;2024-03-06T14:29:23;24.00;36.80
51476;DHT22;37554;50.362;7.568;2024-03-06T14:31:49;24.00;37.10
51476;DHT22;37554;50.362;7.568;2024-03-06T14:34:14;23.90;37.30
51476;DHT22;37554;50.362;7.568;2024-03-06T14:36:40;23.90;37.50
51476;DHT22;37554;50.362;7.568;2024-03-06T14:39:07;23.80;37.60
51476;DHT22;37554;50.362;7.568;2024-03-06T14:41:35;23.70;37.70
51476;DHT22;37554;50.362;7.568;2024-03-06T14:44:01;23.60;37.80
51476;DHT22;37554;50.362;7.568;2024-03-06T14:46:27;23.60;37.90
51476;DHT22;37554;50.362;7.568;2024-03-06T14:48:53;23.50;38.00
51476;DHT22;37554;50.362;7.568;2024-03-06T14:51:19;23.40;38.00
51476;DHT22;37554;50.362;7.568;2024-03-06T14:53:45;23.30;38.10
51476;DHT22;37554;50.362;7.568;2024-03-06T14:56:11;23.20;38.30
51476;DHT22;37554;50.362;7.568;2024-03-06T14:58:37;23.10;38.50
51476;DHT22;37554;50.362;7.568;2024-03-06T15:01:03;23.00;38.60
51476;DHT22;37554;50.362;7.568;2024-03-06T15:03:29;22.90;38.70
51476;DHT22;37554;50.362;7.568;2024-03-06T15:05:54;22.80;38.70
51476;DHT22;37554;50.362;7.568;2024-03-06T15:08:20;22.70;38.80
51476;DHT22;37554;50.362;7.568;2024-03-06T15:10:46;22.70;38.80
51476;DHT22;37554;50.362;7.568;2024-03-06T15:13:11;22.70;38.80
51476;DHT22;37554;50.362;7.568;2024-03-06T15:15:38;22.70;38.70
51476;DHT22;37554;50.362;7.568;2024-03-06T15:18:05;22.80;38.60
51476;DHT22;37554;50.362;7.568;2024-03-06T15:20:31;22.90;38.50
51476;DHT22;37554;50.362;7.568;2024-03-06T15:22:59;23.00;38.40
51476;DHT22;37554;50.362;7.568;2024-03-06T15:25:24;22.90;38.50
51476;DHT22;37554;50.362;7.568;2024-03-06T15:27:50;22.80;38.80
51476;DHT22;37554;50.362;7.568;2024-03-06T15:30:16;22.70;39.00
51476;DHT22;37554;50.362;7.568;2024-03-06T15:32:42;22.60;39.20